createdAt,value
2023-04-14T00:00:34.111Z,66.56
2023-04-14T00:01:34.078Z,66.46
2023-04-14T00:02:34.196Z,67.07
2023-04-14T00:03:34.148Z,66.42
2023-04-14T00:04:34.257Z,66.46
2023-04-14T00:05:34.035Z,66.46
2023-04-14T00:06:34.024Z,66.46
2023-04-14T00:07:34.025Z,66.22
2023-04-14T00:08:34.008Z,66.66
2023-04-14T00:09:33.990Z,66.56
2023-04-14T00:10:35.012Z,66.36
2023-04-14T00:11:33.964Z,66.56
2023-04-14T00:12:33.956Z,67.18
2023-04-14T00:13:33.967Z,66.66
2023-04-14T00:14:33.920Z,66.86
2023-04-14T00:15:33.944Z,66.28
2023-04-14T00:16:33.926Z,66.56
2023-04-14T00:17:33.951Z,66.36
2023-04-14T00:18:34.908Z,66.25
2023-04-14T00:19:33.875Z,66.86
2023-04-14T00:20:33.907Z,66.39
2023-04-14T00:21:33.839Z,66.97
2023-04-14T00:22:33.838Z,67.27
2023-04-14T00:23:33.840Z,66.25
2023-04-14T00:24:33.834Z,66.36
2023-04-14T00:25:33.817Z,66.46
2023-04-14T00:26:33.872Z,66.66
2023-04-14T00:27:33.781Z,66.80
2023-04-14T00:28:33.804Z,66.69
2023-04-14T00:29:33.758Z,67.51
2023-04-14T00:30:33.756Z,66.80
2023-04-14T00:31:33.821Z,67.30
2023-04-14T00:32:34.756Z,66.90
2023-04-14T00:33:33.743Z,67.00
2023-04-14T00:34:33.774Z,66.80
2023-04-14T00:35:33.704Z,67.51
2023-04-14T00:36:33.710Z,67.61
2023-04-14T00:37:33.671Z,67.00
2023-04-14T00:38:33.671Z,66.86
2023-04-14T00:39:33.672Z,66.97
2023-04-14T00:40:33.677Z,66.59
2023-04-14T00:41:33.628Z,67.10
2023-04-14T00:42:33.666Z,67.00
2023-04-14T00:43:33.627Z,66.69
2023-04-14T00:44:34.603Z,67.51
2023-04-14T00:45:33.623Z,67.65
2023-04-14T00:46:33.573Z,67.10
2023-04-14T00:47:33.590Z,67.00
2023-04-14T00:48:33.566Z,66.80
2023-04-14T00:49:33.546Z,66.69
2023-04-14T00:50:33.520Z,67.24
2023-04-14T00:51:33.534Z,66.90
2023-04-14T00:52:34.515Z,67.30
2023-04-14T00:53:33.509Z,67.30
2023-04-14T00:54:33.498Z,67.58
2023-04-14T00:55:33.474Z,67.51
2023-04-14T00:56:33.480Z,67.41
2023-04-14T00:57:33.463Z,67.41
2023-04-14T00:58:33.495Z,67.27
2023-04-14T00:59:33.438Z,67.61
2023-04-14T01:00:33.414Z,67.41
2023-04-14T01:01:34.422Z,67.00
2023-04-14T01:02:33.539Z,67.00
2023-04-14T01:03:34.557Z,66.90
2023-04-14T01:04:49.108Z,66.90
2023-04-14T01:05:34.369Z,66.80
2023-04-14T01:06:33.346Z,67.41
2023-04-14T01:07:33.347Z,67.51
2023-04-14T01:08:33.348Z,67.51
2023-04-14T01:09:33.319Z,67.30
2023-04-14T01:10:33.308Z,66.69
2023-04-14T01:11:33.309Z,66.80
2023-04-14T01:12:34.264Z,67.00
2023-04-14T01:13:33.336Z,67.61
2023-04-14T01:14:34.286Z,67.00
2023-04-14T01:15:33.250Z,66.80
2023-04-14T01:16:33.301Z,67.54
2023-04-14T01:17:33.290Z,67.54
2023-04-14T01:18:33.240Z,67.65
2023-04-14T01:19:34.216Z,67.65
2023-04-14T01:20:34.241Z,67.61
2023-04-14T01:21:33.181Z,67.61
2023-04-14T01:22:33.169Z,67.41
2023-04-14T01:23:33.192Z,67.71
2023-04-14T01:24:33.202Z,67.71
2023-04-14T01:25:33.136Z,67.24
2023-04-14T01:26:34.141Z,67.34
2023-04-14T01:27:33.133Z,67.51
2023-04-14T01:28:33.117Z,68.05
2023-04-14T01:29:33.095Z,68.12
2023-04-14T01:30:33.124Z,68.12
2023-04-14T01:31:33.194Z,68.16
2023-04-14T01:32:33.073Z,67.95
2023-04-14T01:33:34.079Z,68.23
2023-04-14T01:34:33.061Z,67.92
2023-04-14T01:35:33.086Z,68.05
2023-04-14T01:36:33.011Z,68.05
2023-04-14T01:37:34.000Z,67.92
2023-04-14T01:38:33.000Z,68.16
2023-04-14T01:39:32.985Z,68.05
2023-04-14T01:40:32.997Z,68.16
2023-04-14T01:41:33.025Z,68.26
2023-04-14T01:42:32.971Z,68.77
2023-04-14T01:43:33.942Z,68.26
2023-04-14T01:44:32.927Z,68.46
2023-04-14T01:45:33.924Z,68.26
2023-04-14T01:46:32.918Z,68.26
2023-04-14T01:47:32.920Z,68.66
2023-04-14T01:48:32.911Z,68.57
2023-04-14T01:49:32.902Z,68.46
2023-04-14T01:50:32.917Z,68.57
2023-04-14T01:51:32.867Z,68.46
2023-04-14T01:52:32.855Z,68.05
2023-04-14T01:53:32.833Z,67.85
2023-04-14T01:54:32.806Z,68.46
2023-04-14T01:55:32.797Z,68.46
2023-04-14T01:56:32.827Z,68.16
2023-04-14T01:57:32.800Z,68.05
2023-04-14T01:58:33.766Z,68.16
2023-04-14T01:59:32.788Z,68.26
2023-04-14T02:00:33.746Z,68.36
2023-04-14T02:01:32.793Z,68.26
2023-04-14T02:02:32.925Z,68.16
2023-04-14T02:03:32.780Z,68.02
2023-04-14T02:04:33.689Z,68.26
2023-04-14T02:05:33.679Z,67.85
2023-04-14T02:06:33.688Z,67.34
2023-04-14T02:07:33.686Z,67.34
2023-04-14T02:08:32.671Z,67.44
2023-04-14T02:09:32.676Z,67.54
2023-04-14T02:10:32.642Z,67.54
2023-04-14T02:11:32.695Z,67.54
2023-04-14T02:12:32.653Z,67.95
2023-04-14T02:13:32.635Z,68.16
2023-04-14T02:14:32.609Z,68.16
2023-04-14T02:15:32.589Z,67.85
2023-04-14T02:16:32.595Z,68.16
2023-04-14T02:17:32.590Z,68.16
2023-04-14T02:18:32.566Z,68.16
2023-04-14T02:19:32.605Z,68.16
2023-04-14T02:20:32.525Z,68.26
2023-04-14T02:21:33.524Z,67.92
2023-04-14T02:22:32.503Z,67.85
2023-04-14T02:23:32.608Z,67.85
2023-04-14T02:24:32.588Z,67.85
2023-04-14T02:25:32.491Z,67.27
2023-04-14T02:26:32.478Z,67.75
2023-04-14T02:27:32.436Z,68.05
2023-04-14T02:28:32.434Z,68.36
2023-04-14T02:29:32.426Z,68.46
2023-04-14T02:30:32.484Z,67.85
2023-04-14T02:31:33.433Z,68.26
2023-04-14T02:32:32.414Z,67.95
2023-04-14T02:33:32.420Z,67.95
2023-04-14T02:34:32.420Z,68.16
2023-04-14T02:35:32.384Z,67.65
2023-04-14T02:36:32.456Z,67.65
2023-04-14T02:37:32.348Z,67.21
2023-04-14T02:38:32.345Z,67.65
2023-04-14T02:39:32.313Z,67.54
2023-04-14T02:40:32.366Z,67.95
2023-04-14T02:41:32.318Z,67.65
2023-04-14T02:42:32.272Z,67.65
2023-04-14T02:43:32.281Z,67.75
2023-04-14T02:44:32.283Z,67.85
2023-04-14T02:45:32.264Z,67.65
2023-04-14T02:46:32.315Z,67.95
2023-04-14T02:47:32.254Z,67.65
2023-04-14T02:48:32.218Z,67.44
2023-04-14T02:49:32.223Z,67.54
2023-04-14T02:50:32.244Z,67.65
2023-04-14T02:51:32.233Z,67.24
2023-04-14T02:52:32.179Z,67.54
2023-04-14T02:53:32.168Z,67.24
2023-04-14T02:54:32.148Z,67.54
2023-04-14T02:55:32.183Z,67.44
2023-04-14T02:56:32.156Z,67.41
2023-04-14T02:57:33.168Z,67.10
2023-04-14T02:58:33.108Z,67.51
2023-04-14T02:59:33.107Z,67.03
2023-04-14T03:00:33.115Z,67.51
2023-04-14T03:01:32.163Z,67.24
2023-04-14T03:02:33.643Z,67.44
2023-04-14T03:03:32.113Z,66.93
2023-04-14T03:04:33.078Z,67.75
2023-04-14T03:05:33.039Z,67.44
2023-04-14T03:06:32.051Z,67.54
2023-04-14T03:07:32.042Z,67.65
2023-04-14T03:08:32.064Z,67.65
2023-04-14T03:09:32.004Z,67.75
2023-04-14T03:10:31.985Z,67.85
2023-04-14T03:11:31.972Z,67.95
2023-04-14T03:12:31.968Z,68.16
2023-04-14T03:13:31.964Z,67.95
2023-04-14T03:14:31.935Z,67.65
2023-04-14T03:15:31.936Z,66.72
2023-04-14T03:16:32.020Z,67.34
2023-04-14T03:17:31.958Z,66.93
2023-04-14T03:18:32.884Z,67.54
2023-04-14T03:19:32.875Z,67.03
2023-04-14T03:20:31.875Z,67.34
2023-04-14T03:21:31.864Z,66.72
2023-04-14T03:22:31.850Z,66.93
2023-04-14T03:23:31.862Z,66.86
2023-04-14T03:24:31.849Z,68.12
2023-04-14T03:25:31.806Z,68.19
2023-04-14T03:26:31.809Z,67.81
2023-04-14T03:27:31.794Z,68.55
2023-04-14T03:28:32.985Z,69.04
2023-04-14T03:29:31.776Z,68.63
2023-04-14T03:30:31.782Z,68.60
2023-04-14T03:31:31.880Z,68.70
2023-04-14T03:32:31.766Z,68.70
2023-04-14T03:33:31.752Z,68.19
2023-04-14T03:34:32.716Z,68.60
2023-04-14T03:35:31.712Z,68.29
2023-04-14T03:36:31.715Z,68.29
2023-04-14T03:37:31.668Z,67.95
2023-04-14T03:38:31.687Z,68.05
2023-04-14T03:39:31.671Z,68.16
2023-04-14T03:40:31.687Z,68.36
2023-04-14T03:41:31.647Z,68.70
2023-04-14T03:42:32.616Z,68.46
2023-04-14T03:43:31.635Z,68.08
2023-04-14T03:44:31.628Z,68.08
2023-04-14T03:45:31.600Z,68.49
2023-04-14T03:46:31.619Z,68.29
2023-04-14T03:47:31.921Z,68.39
2023-04-14T03:48:31.546Z,68.29
2023-04-14T03:49:31.560Z,68.60
2023-04-14T03:50:31.559Z,68.80
2023-04-14T03:51:31.562Z,68.46
2023-04-14T03:52:31.523Z,68.46
2023-04-14T03:53:31.537Z,68.39
2023-04-14T03:54:31.521Z,68.29
2023-04-14T03:55:31.524Z,68.39
2023-04-14T03:56:32.476Z,68.60
2023-04-14T03:57:31.475Z,68.49
2023-04-14T03:58:32.482Z,68.80
2023-04-14T03:59:31.456Z,69.21
2023-04-14T04:00:31.430Z,69.21
2023-04-14T04:01:31.467Z,69.21
2023-04-14T04:02:31.472Z,69.21
2023-04-14T04:03:31.551Z,69.21
2023-04-14T04:04:31.534Z,69.31
2023-04-14T04:05:31.402Z,69.11
2023-04-14T04:06:32.365Z,69.11
2023-04-14T04:07:31.357Z,69.11
2023-04-14T04:08:31.358Z,69.31
2023-04-14T04:09:31.365Z,68.80
2023-04-14T04:10:31.362Z,69.01
2023-04-14T04:11:31.349Z,69.24
2023-04-14T04:12:31.294Z,69.45
2023-04-14T04:13:31.313Z,69.55
2023-04-14T04:14:31.303Z,69.65
2023-04-14T04:15:32.306Z,69.85
2023-04-14T04:16:31.292Z,69.65
2023-04-14T04:17:31.324Z,69.75
2023-04-14T04:18:31.240Z,69.55
2023-04-14T04:19:31.279Z,69.45
2023-04-14T04:20:31.239Z,69.24
2023-04-14T04:21:32.227Z,69.27
2023-04-14T04:22:31.208Z,69.68
2023-04-14T04:23:31.166Z,69.68
2023-04-14T04:24:31.185Z,69.99
2023-04-14T04:25:31.162Z,70.29
2023-04-14T04:26:31.173Z,70.09
2023-04-14T04:27:31.138Z,70.09
2023-04-14T04:28:32.116Z,70.71
2023-04-14T04:29:31.154Z,70.29
2023-04-14T04:30:31.099Z,70.20
2023-04-14T04:31:32.119Z,70.40
2023-04-14T04:32:31.190Z,70.16
2023-04-14T04:33:31.095Z,69.96
2023-04-14T04:34:31.071Z,70.06
2023-04-14T04:35:31.095Z,69.65
2023-04-14T04:36:31.036Z,70.16
2023-04-14T04:37:31.036Z,70.06
2023-04-14T04:38:31.017Z,69.85
2023-04-14T04:39:32.036Z,69.85
2023-04-14T04:40:30.988Z,69.75
2023-04-14T04:41:31.088Z,69.75
2023-04-14T04:42:30.983Z,69.75
2023-04-14T04:43:30.968Z,69.65
2023-04-14T04:44:30.951Z,69.55
2023-04-14T04:45:30.959Z,69.55
2023-04-14T04:46:32.009Z,69.45
2023-04-14T04:47:30.935Z,69.45
2023-04-14T04:48:30.911Z,69.31
2023-04-14T04:49:31.932Z,69.62
2023-04-14T04:50:30.898Z,69.42
2023-04-14T04:51:30.901Z,69.62
2023-04-14T04:52:30.893Z,69.72
2023-04-14T04:53:31.866Z,69.42
2023-04-14T04:54:30.843Z,69.42
2023-04-14T04:55:30.820Z,69.72
2023-04-14T04:56:30.834Z,69.42
2023-04-14T04:57:30.873Z,69.52
2023-04-14T04:58:30.861Z,69.62
2023-04-14T04:59:30.791Z,69.72
2023-04-14T05:00:30.777Z,69.82
2023-04-14T05:01:30.824Z,70.03
2023-04-14T05:02:30.852Z,70.13
2023-04-14T05:03:30.833Z,69.52
2023-04-14T05:04:31.786Z,69.62
2023-04-14T05:05:30.709Z,69.62
2023-04-14T05:06:30.719Z,69.38
2023-04-14T05:07:30.704Z,69.69
2023-04-14T05:08:30.697Z,69.79
2023-04-14T05:09:30.698Z,69.59
2023-04-14T05:10:30.668Z,69.38
2023-04-14T05:11:30.654Z,69.59
2023-04-14T05:12:30.646Z,69.28
2023-04-14T05:13:31.637Z,69.48
2023-04-14T05:14:30.656Z,69.28
2023-04-14T05:15:30.677Z,69.31
2023-04-14T05:16:30.595Z,69.48
2023-04-14T05:17:30.653Z,69.69
2023-04-14T05:18:30.579Z,69.48
2023-04-14T05:19:30.582Z,69.52
2023-04-14T05:20:33.022Z,69.82
2023-04-14T05:21:30.547Z,70.03
2023-04-14T05:22:30.529Z,70.00
2023-04-14T05:23:30.526Z,69.62
2023-04-14T05:24:30.524Z,69.93
2023-04-14T05:25:30.511Z,70.13
2023-04-14T05:26:51.199Z,70.43
2023-04-14T05:27:31.552Z,70.43
2023-04-14T05:28:30.493Z,70.10
2023-04-14T05:29:30.454Z,70.30
2023-04-14T05:30:30.478Z,70.10
2023-04-14T05:31:30.484Z,70.20
2023-04-14T05:32:30.478Z,70.10
2023-04-14T05:33:30.405Z,70.34
2023-04-14T05:34:31.398Z,70.64
2023-04-14T05:35:30.397Z,70.64
2023-04-14T05:36:31.417Z,70.43
2023-04-14T05:37:30.377Z,70.34
2023-04-14T05:38:30.369Z,70.61
2023-04-14T05:39:30.355Z,70.54
2023-04-14T05:40:30.362Z,70.51
2023-04-14T05:41:30.348Z,70.30
2023-04-14T05:42:30.349Z,70.61
2023-04-14T05:43:31.284Z,70.20
2023-04-14T05:44:30.307Z,70.40
2023-04-14T05:45:30.271Z,70.30
2023-04-14T05:46:30.337Z,70.51
2023-04-14T05:47:30.314Z,70.30
2023-04-14T05:48:30.265Z,70.30
2023-04-14T05:49:30.245Z,70.40
2023-04-14T05:50:31.220Z,70.30
2023-04-14T05:51:31.245Z,70.27
2023-04-14T05:52:30.226Z,70.00
2023-04-14T05:53:30.272Z,69.86
2023-04-14T05:54:30.181Z,69.96
2023-04-14T05:55:30.172Z,69.96
2023-04-14T05:56:30.185Z,69.96
2023-04-14T05:57:30.179Z,69.96
2023-04-14T05:58:30.145Z,69.76
2023-04-14T05:59:30.143Z,69.76
2023-04-14T06:00:31.115Z,69.86
2023-04-14T06:01:30.114Z,69.65
2023-04-14T06:02:30.234Z,69.65
2023-04-14T06:03:30.338Z,69.56
2023-04-14T06:04:30.254Z,69.82
2023-04-14T06:05:30.117Z,69.86
2023-04-14T06:06:30.104Z,69.42
2023-04-14T06:07:30.103Z,69.65
2023-04-14T06:08:30.023Z,69.45
2023-04-14T06:09:30.062Z,69.76
2023-04-14T06:10:31.001Z,69.96
2023-04-14T06:11:31.002Z,70.37
2023-04-14T06:12:30.027Z,70.37
2023-04-14T06:13:32.540Z,70.44
2023-04-14T06:14:29.954Z,70.27
2023-04-14T06:15:30.938Z,70.44
2023-04-14T06:16:29.981Z,70.03
2023-04-14T06:17:31.037Z,70.14
2023-04-14T06:18:29.958Z,70.23
2023-04-14T06:19:29.931Z,70.03
2023-04-14T06:20:32.408Z,69.79
2023-04-14T06:21:30.904Z,70.14
2023-04-14T06:22:29.873Z,70.14
2023-04-14T06:23:29.875Z,70.44
2023-04-14T06:24:29.884Z,70.10
2023-04-14T06:25:29.858Z,70.00
2023-04-14T06:26:29.821Z,70.00
2023-04-14T06:27:29.837Z,69.69
2023-04-14T06:28:29.807Z,70.20
2023-04-14T06:29:29.850Z,69.90
2023-04-14T06:30:29.777Z,69.29
2023-04-14T06:31:29.896Z,69.18
2023-04-14T06:32:29.815Z,69.49
2023-04-14T06:33:29.775Z,69.59
2023-04-14T06:34:29.751Z,69.18
2023-04-14T06:35:33.040Z,69.38
2023-04-14T06:36:29.712Z,69.49
2023-04-14T06:37:29.710Z,69.49
2023-04-14T06:38:29.702Z,69.18
2023-04-14T06:39:29.721Z,69.49
2023-04-14T06:40:29.789Z,69.38
2023-04-14T06:41:29.686Z,68.88
2023-04-14T06:42:30.653Z,68.77
2023-04-14T06:43:29.731Z,68.88
2023-04-14T06:44:29.651Z,68.98
2023-04-14T06:45:29.621Z,68.98
2023-04-14T06:46:29.729Z,68.47
2023-04-14T06:47:29.622Z,68.23
2023-04-14T06:48:30.594Z,68.06
2023-04-14T06:49:30.585Z,68.06
2023-04-14T06:50:29.593Z,68.26
2023-04-14T06:51:29.540Z,68.80
2023-04-14T06:52:29.624Z,68.91
2023-04-14T06:53:29.563Z,69.01
2023-04-14T06:54:29.513Z,69.32
2023-04-14T06:55:29.561Z,69.82
2023-04-14T06:56:29.513Z,70.03
2023-04-14T06:57:29.508Z,70.27
2023-04-14T06:58:29.601Z,70.37
2023-04-14T06:59:29.488Z,70.23
2023-04-14T07:00:29.504Z,70.03
2023-04-14T07:01:29.521Z,70.23
2023-04-14T07:02:29.475Z,70.17
2023-04-14T07:03:29.480Z,70.61
2023-04-14T07:04:29.463Z,70.31
2023-04-14T07:05:29.395Z,70.31
2023-04-14T07:06:29.410Z,70.37
2023-04-14T07:07:29.482Z,69.96
2023-04-14T07:08:30.370Z,70.07
2023-04-14T07:09:29.410Z,69.66
2023-04-14T07:10:30.330Z,69.25
2023-04-14T07:11:29.323Z,69.56
2023-04-14T07:12:29.312Z,69.46
2023-04-14T07:13:29.431Z,69.25
2023-04-14T07:14:29.299Z,69.32
2023-04-14T07:15:29.357Z,69.22
2023-04-14T07:16:29.356Z,69.22
2023-04-14T07:17:29.326Z,68.91
2023-04-14T07:18:29.237Z,68.61
2023-04-14T07:19:29.249Z,68.91
2023-04-14T07:20:29.235Z,68.33
2023-04-14T07:21:29.238Z,69.29
2023-04-14T07:22:29.250Z,69.49
2023-04-14T07:23:29.227Z,69.38
2023-04-14T07:24:30.185Z,69.15
2023-04-14T07:25:29.192Z,69.35
2023-04-14T07:26:30.178Z,69.18
2023-04-14T07:27:29.153Z,69.29
2023-04-14T07:28:29.184Z,69.29
2023-04-14T07:29:30.121Z,69.59
2023-04-14T07:30:29.112Z,69.49
2023-04-14T07:31:29.133Z,69.90
2023-04-14T07:32:29.139Z,69.90
2023-04-14T07:33:30.115Z,70.10
2023-04-14T07:34:30.082Z,70.07
2023-04-14T07:35:29.070Z,69.69
2023-04-14T07:36:30.032Z,69.59
2023-04-14T07:37:29.079Z,70.44
2023-04-14T07:38:29.048Z,70.61
2023-04-14T07:39:29.329Z,70.00
2023-04-14T07:40:30.017Z,70.07
2023-04-14T07:41:29.036Z,69.66
2023-04-14T07:42:29.018Z,69.73
2023-04-14T07:43:29.987Z,69.73
2023-04-14T07:44:28.962Z,69.42
2023-04-14T07:45:29.970Z,69.35
2023-04-14T07:46:29.059Z,69.32
2023-04-14T07:47:29.950Z,69.32
2023-04-14T07:48:29.911Z,68.81
2023-04-14T07:49:28.944Z,68.91
2023-04-14T07:50:28.913Z,68.81
2023-04-14T07:51:29.932Z,68.61
2023-04-14T07:52:28.872Z,68.71
2023-04-14T07:53:28.879Z,68.61
2023-04-14T07:54:28.897Z,68.61
2023-04-14T07:55:28.871Z,68.74
2023-04-14T07:56:28.836Z,68.81
2023-04-14T07:57:28.851Z,68.68
2023-04-14T07:58:29.683Z,68.61
2023-04-14T07:59:28.800Z,68.51
2023-04-14T08:00:28.788Z,68.78
2023-04-14T08:01:28.785Z,68.07
2023-04-14T08:02:28.893Z,67.86
2023-04-14T08:03:29.972Z,67.99
2023-04-14T08:04:28.761Z,67.96
2023-04-14T08:05:29.758Z,67.35
2023-04-14T08:06:28.758Z,68.17
2023-04-14T08:07:28.713Z,68.10
2023-04-14T08:08:29.742Z,68.07
2023-04-14T08:09:28.759Z,68.17
2023-04-14T08:10:29.700Z,68.27
2023-04-14T08:11:28.671Z,68.30
2023-04-14T08:12:28.653Z,68.07
2023-04-14T08:13:28.643Z,67.66
2023-04-14T08:14:28.641Z,67.86
2023-04-14T08:15:28.670Z,67.55
2023-04-14T08:16:28.693Z,68.68
2023-04-14T08:17:29.623Z,68.78
2023-04-14T08:18:29.604Z,68.57
2023-04-14T08:19:29.599Z,68.37
2023-04-14T08:20:29.610Z,68.78
2023-04-14T08:21:28.557Z,68.75
2023-04-14T08:22:28.540Z,68.07
2023-04-14T08:23:28.547Z,68.81
2023-04-14T08:24:29.523Z,68.88
2023-04-14T08:25:28.519Z,68.91
2023-04-14T08:26:29.572Z,68.40
2023-04-14T08:27:28.531Z,69.12
2023-04-14T08:28:28.486Z,68.98
2023-04-14T08:29:28.447Z,68.48
2023-04-14T08:30:29.461Z,68.48
2023-04-14T08:31:28.483Z,68.57
2023-04-14T08:32:28.879Z,67.86
2023-04-14T08:33:28.482Z,67.93
2023-04-14T08:34:28.893Z,67.32
2023-04-14T08:35:35.389Z,66.61
2023-04-14T08:36:29.414Z,66.13
2023-04-14T08:37:28.386Z,66.82
2023-04-14T08:38:28.417Z,66.74
2023-04-14T08:39:28.341Z,67.15
2023-04-14T08:40:28.357Z,67.25
2023-04-14T08:41:29.329Z,67.76
2023-04-14T08:42:28.342Z,67.25
2023-04-14T08:43:28.346Z,67.43
2023-04-14T08:44:28.305Z,66.61
2023-04-14T08:45:29.364Z,66.61
2023-04-14T08:46:28.452Z,66.91
2023-04-14T08:47:28.265Z,66.61
2023-04-14T08:48:28.302Z,67.02
2023-04-14T08:49:29.246Z,66.61
2023-04-14T08:50:28.223Z,67.02
2023-04-14T08:51:28.211Z,66.61
2023-04-14T08:52:28.218Z,66.91
2023-04-14T08:53:28.241Z,66.54
2023-04-14T08:54:28.190Z,66.61
2023-04-14T08:55:28.200Z,67.46
2023-04-14T08:56:28.202Z,67.15
2023-04-14T08:57:28.176Z,66.85
2023-04-14T08:58:28.183Z,66.85
2023-04-14T08:59:28.140Z,67.86
2023-04-14T09:00:29.134Z,67.49
2023-04-14T09:01:28.237Z,68.81
2023-04-14T09:02:28.276Z,68.40
2023-04-14T09:03:28.382Z,67.86
2023-04-14T09:04:28.607Z,67.43
2023-04-14T09:05:29.103Z,66.74
2023-04-14T09:06:28.110Z,66.33
2023-04-14T09:07:28.918Z,66.74
2023-04-14T09:08:28.042Z,66.74
2023-04-14T09:09:28.106Z,66.54
2023-04-14T09:10:28.000Z,66.61
2023-04-14T09:11:27.997Z,66.78
2023-04-14T09:12:28.021Z,66.41
2023-04-14T09:13:27.985Z,66.44
2023-04-14T09:14:27.991Z,66.61
2023-04-14T09:15:27.994Z,66.07
2023-04-14T09:16:29.046Z,66.24
2023-04-14T09:17:28.041Z,66.35
2023-04-14T09:18:28.292Z,66.47
2023-04-14T09:19:27.930Z,66.35
2023-04-14T09:20:40.865Z,66.21
2023-04-14T09:21:50.678Z,66.44
2023-04-14T09:22:28.886Z,66.52
2023-04-14T09:23:27.873Z,67.02
2023-04-14T09:24:31.771Z,66.18
2023-04-14T09:25:27.859Z,66.38
2023-04-14T09:26:27.837Z,65.23
2023-04-14T09:27:27.833Z,65.13
2023-04-14T09:28:27.855Z,64.65
2023-04-14T09:29:27.806Z,65.09
2023-04-14T09:30:28.884Z,65.39
2023-04-14T09:31:27.887Z,66.88
2023-04-14T09:32:27.762Z,66.17
2023-04-14T09:33:27.748Z,66.88
2023-04-14T09:34:27.800Z,66.55
2023-04-14T09:35:27.755Z,66.75
2023-04-14T09:36:27.783Z,66.21
2023-04-14T09:37:27.711Z,65.47
2023-04-14T09:38:28.699Z,65.91
2023-04-14T09:39:28.712Z,64.38
2023-04-14T09:40:27.708Z,64.35
2023-04-14T09:41:27.691Z,64.25
2023-04-14T09:42:27.722Z,64.86
2023-04-14T09:43:27.738Z,64.35
2023-04-14T09:44:27.638Z,64.76
2023-04-14T09:45:27.654Z,64.52
2023-04-14T09:46:28.675Z,64.15
2023-04-14T09:47:27.702Z,64.15
2023-04-14T09:48:28.618Z,63.94
2023-04-14T09:49:27.567Z,63.94
2023-04-14T09:50:27.572Z,64.04
2023-04-14T09:51:27.603Z,63.64
2023-04-14T09:52:27.555Z,64.15
2023-04-14T09:53:27.534Z,64.35
2023-04-14T09:54:27.558Z,64.73
2023-04-14T09:55:27.516Z,64.65
2023-04-14T09:56:27.498Z,64.65
2023-04-14T09:57:27.509Z,64.35
2023-04-14T09:58:29.342Z,64.42
2023-04-14T09:59:27.518Z,64.93
2023-04-14T10:00:28.465Z,63.78
2023-04-14T10:01:27.486Z,64.01
2023-04-14T10:02:27.536Z,62.76
2023-04-14T10:03:27.625Z,61.68
2023-04-14T10:04:27.494Z,62.18
2023-04-14T10:05:27.418Z,62.59
2023-04-14T10:06:27.424Z,63.20
2023-04-14T10:07:27.429Z,64.12
2023-04-14T10:08:27.372Z,62.82
2023-04-14T10:09:27.381Z,62.59
2023-04-14T10:10:27.364Z,62.79
2023-04-14T10:11:27.340Z,63.81
2023-04-14T10:12:27.343Z,63.94
2023-04-14T10:13:27.341Z,64.15
2023-04-14T10:14:27.315Z,62.62
2023-04-14T10:15:27.334Z,64.42
2023-04-14T10:16:28.458Z,63.51
2023-04-14T10:17:29.448Z,63.91
2023-04-14T10:18:27.346Z,63.60
2023-04-14T10:19:27.267Z,63.51
2023-04-14T10:20:27.258Z,62.59
2023-04-14T10:21:27.260Z,63.20
2023-04-14T10:22:27.221Z,63.02
2023-04-14T10:23:27.197Z,62.41
2023-04-14T10:24:27.231Z,62.52
2023-04-14T10:25:28.197Z,62.82
2023-04-14T10:26:27.194Z,64.58
2023-04-14T10:27:27.165Z,64.38
2023-04-14T10:28:27.146Z,64.76
2023-04-14T10:29:27.189Z,64.55
2023-04-14T10:30:27.134Z,64.04
2023-04-14T10:31:28.187Z,63.94
2023-04-14T10:32:27.178Z,63.97
2023-04-14T10:33:27.145Z,64.07
2023-04-14T10:34:27.138Z,65.05
2023-04-14T10:35:27.082Z,65.63
2023-04-14T10:36:28.099Z,66.58
2023-04-14T10:37:27.056Z,66.58
2023-04-14T10:38:27.048Z,66.55
2023-04-14T10:39:27.127Z,66.55
2023-04-14T10:40:27.022Z,66.44
2023-04-14T10:41:27.036Z,66.55
2023-04-14T10:42:27.019Z,66.35
2023-04-14T10:43:26.981Z,66.96
2023-04-14T10:44:28.017Z,67.33
2023-04-14T10:45:26.993Z,67.36
2023-04-14T10:46:26.985Z,67.63
2023-04-14T10:47:26.957Z,67.63
2023-04-14T10:48:26.956Z,67.16
2023-04-14T10:49:27.929Z,67.87
2023-04-14T10:50:27.982Z,67.57
2023-04-14T10:51:26.898Z,67.36
2023-04-14T10:52:26.898Z,65.97
2023-04-14T10:53:26.876Z,67.12
2023-04-14T10:54:26.886Z,67.08
2023-04-14T10:55:27.924Z,67.32
2023-04-14T10:56:27.872Z,68.13
2023-04-14T10:57:27.856Z,68.34
2023-04-14T10:58:27.821Z,68.41
2023-04-14T10:59:26.812Z,67.83
2023-04-14T11:00:27.816Z,68.54
2023-04-14T11:01:26.937Z,67.73
2023-04-14T11:02:27.048Z,68.75
2023-04-14T11:03:28.762Z,68.92
2023-04-14T11:04:26.855Z,69.43
2023-04-14T11:05:26.739Z,69.09
2023-04-14T11:06:26.743Z,69.09
2023-04-14T11:07:26.762Z,68.27
2023-04-14T11:08:26.737Z,68.38
2023-04-14T11:09:27.703Z,67.57
2023-04-14T11:10:26.742Z,67.46
2023-04-14T11:11:27.715Z,66.75
2023-04-14T11:12:26.722Z,66.55
2023-04-14T11:13:27.699Z,66.96
2023-04-14T11:14:26.677Z,66.85
2023-04-14T11:15:26.636Z,66.65
2023-04-14T11:16:26.701Z,66.72
2023-04-14T11:17:27.660Z,66.72
2023-04-14T11:18:27.631Z,66.72
2023-04-14T11:19:26.621Z,68.44
2023-04-14T11:20:27.596Z,67.74
2023-04-14T11:21:26.594Z,65.94
2023-04-14T11:22:26.586Z,66.21
2023-04-14T11:23:26.559Z,66.14
2023-04-14T11:24:27.565Z,67.26
2023-04-14T11:25:26.553Z,66.52
2023-04-14T11:26:26.545Z,66.82
2023-04-14T11:27:26.557Z,66.79
2023-04-14T11:28:26.506Z,67.19
2023-04-14T11:29:26.473Z,66.38
2023-04-14T11:30:26.482Z,66.79
2023-04-14T11:31:26.557Z,66.08
2023-04-14T11:32:26.604Z,66.18
2023-04-14T11:33:26.489Z,65.26
2023-04-14T11:34:26.427Z,66.18
2023-04-14T11:35:27.452Z,66.28
2023-04-14T11:36:27.427Z,65.09
2023-04-14T11:37:26.411Z,65.47
2023-04-14T11:38:26.443Z,66.08
2023-04-14T11:39:26.374Z,64.25
2023-04-14T11:40:26.846Z,66.44
2023-04-14T11:41:26.365Z,65.60
2023-04-14T11:42:26.338Z,66.00
2023-04-14T11:43:26.347Z,66.31
2023-04-14T11:44:26.371Z,66.82
2023-04-14T11:45:27.329Z,66.38
2023-04-14T11:46:26.343Z,68.04
2023-04-14T11:47:26.346Z,67.22
2023-04-14T11:48:26.317Z,68.14
2023-04-14T11:49:26.277Z,67.53
2023-04-14T11:50:26.267Z,66.72
2023-04-14T11:51:26.253Z,67.50
2023-04-14T11:52:26.251Z,68.75
2023-04-14T11:53:26.270Z,68.55
2023-04-14T11:54:26.941Z,68.38
2023-04-14T11:55:26.234Z,68.24
2023-04-14T11:56:26.252Z,68.99
2023-04-14T11:57:26.204Z,68.48
2023-04-14T11:58:26.185Z,68.68
2023-04-14T11:59:26.220Z,68.31
2023-04-14T12:00:26.166Z,68.48
2023-04-14T12:01:26.170Z,67.05
2023-04-14T12:02:26.288Z,68.01
2023-04-14T12:03:26.229Z,68.92
2023-04-14T12:04:26.265Z,68.92
2023-04-14T12:05:26.119Z,68.79
2023-04-14T12:06:26.084Z,69.70
2023-04-14T12:07:26.105Z,69.49
2023-04-14T12:08:26.059Z,69.06
2023-04-14T12:09:26.070Z,69.23
2023-04-14T12:10:26.055Z,68.11
2023-04-14T12:11:26.046Z,68.01
2023-04-14T12:12:28.583Z,66.89
2023-04-14T12:13:25.996Z,67.40
2023-04-14T12:14:26.996Z,66.76
2023-04-14T12:15:26.016Z,66.15
2023-04-14T12:16:26.032Z,65.77
2023-04-14T12:17:26.088Z,65.77
2023-04-14T12:18:25.979Z,64.45
2023-04-14T12:19:25.956Z,65.54
2023-04-14T12:20:26.927Z,64.65
2023-04-14T12:21:25.946Z,64.52
2023-04-14T12:22:25.960Z,65.13
2023-04-14T12:23:25.912Z,65.16
2023-04-14T12:24:25.933Z,64.04
2023-04-14T12:25:25.913Z,63.94
2023-04-14T12:26:25.947Z,63.91
2023-04-14T12:27:25.854Z,63.91
2023-04-14T12:28:25.849Z,64.86
2023-04-14T12:29:25.839Z,64.65
2023-04-14T12:30:25.849Z,65.06
2023-04-14T12:31:25.819Z,64.69
2023-04-14T12:32:25.849Z,64.86
2023-04-14T12:33:25.789Z,64.65
2023-04-14T12:34:25.810Z,64.38
2023-04-14T12:35:26.822Z,64.35
2023-04-14T12:36:33.111Z,64.15
2023-04-14T12:37:26.779Z,64.86
2023-04-14T12:38:25.738Z,64.35
2023-04-14T12:39:25.760Z,65.09
2023-04-14T12:40:25.777Z,65.30
2023-04-14T12:41:25.717Z,66.18
2023-04-14T12:42:25.706Z,64.79
2023-04-14T12:43:25.667Z,65.91
2023-04-14T12:44:26.669Z,66.21
2023-04-14T12:45:25.654Z,65.88
2023-04-14T12:46:26.732Z,66.18
2023-04-14T12:47:25.691Z,65.06
2023-04-14T12:48:25.615Z,64.69
2023-04-14T12:49:25.611Z,64.58
2023-04-14T12:50:26.734Z,66.38
2023-04-14T12:51:25.638Z,66.65
2023-04-14T12:52:25.591Z,66.14